Terminal Aerodrome Forecast
Issued by NWS

Home | Current Version | Previous Version | Text Only | Print | Product List | Glossary On
Versions: 1 2 3 4 5 6 7 8 9 10 11 12 13 14
209
FTAK31 PAJN 262339
TAFAJN
TAF
PAJN 262339Z 2700/2724 10005KT P6SM VCSH OVC050
     FM270200 10005KT P6SM BKN060
     FM270500 VRB04KT P6SM SCT100=

USA.gov is the U.S. government's official web portal to all federal, state and local government web resources and services.